TimeCDT,TemperatureF,Dew PointF,Humidity,Sea Level PressureIn,VisibilityMPH,Wind Direction,Wind SpeedMPH,Gust SpeedMPH,PrecipitationIn,Events,Conditions,WindDirDegrees,DateUTC
12:15 AM,37.4,33.8,87,29.92,6.0,ESE,6.9,-,N/A,,Clear,120,2012-11-02 05:15:00
12:35 AM,39.2,35.6,87,29.91,5.0,ESE,8.1,-,N/A,,Clear,120,2012-11-02 05:35:00
12:55 AM,39.2,35.6,87,29.91,5.0,SE,8.1,-,N/A,,Clear,130,2012-11-02 05:55:00
1:15 AM,39.2,35.6,87,29.91,5.0,ESE,8.1,-,N/A,,Clear,120,2012-11-02 06:15:00
1:35 AM,39.2,35.6,87,29.91,5.0,East,8.1,-,N/A,,Clear,100,2012-11-02 06:35:00
1:55 AM,37.4,33.8,87,29.91,4.0,ENE,6.9,-,N/A,,Clear,70,2012-11-02 06:55:00
2:15 AM,37.4,33.8,87,29.91,4.0,East,8.1,-,N/A,,Clear,80,2012-11-02 07:15:00
2:35 AM,35.6,33.8,93,29.91,3.0,East,8.1,-,N/A,,Clear,80,2012-11-02 07:35:00
2:55 AM,35.6,33.8,93,29.91,3.0,East,8.1,-,N/A,,Clear,80,2012-11-02 07:55:00
3:15 AM,35.6,32.0,87,29.91,2.5,ENE,8.1,-,N/A,,Clear,70,2012-11-02 08:15:00
3:35 AM,35.6,33.8,93,29.91,2.5,East,9.2,-,N/A,,Clear,90,2012-11-02 08:35:00
3:55 AM,35.6,33.8,93,29.90,2.5,East,8.1,-,N/A,,Clear,90,2012-11-02 08:55:00
4:15 AM,35.6,32.0,87,29.89,2.0,East,6.9,-,N/A,,Clear,80,2012-11-02 09:15:00
4:35 AM,35.6,33.8,93,29.88,2.0,East,8.1,-,N/A,,Clear,90,2012-11-02 09:35:00
4:55 AM,35.6,33.8,93,29.89,2.5,ENE,6.9,-,N/A,,Clear,70,2012-11-02 09:55:00
5:15 AM,33.8,32.0,93,29.89,2.0,East,6.9,-,N/A,,Clear,80,2012-11-02 10:15:00
5:35 AM,33.8,30.2,87,29.89,2.0,ENE,6.9,-,N/A,,Clear,70,2012-11-02 10:35:00
5:55 AM,33.8,30.2,87,29.89,2.5,East,5.8,-,N/A,,Clear,80,2012-11-02 10:55:00
6:15 AM,33.8,30.2,87,29.88,2.5,East,6.9,-,N/A,,Clear,80,2012-11-02 11:15:00
6:35 AM,32.0,28.4,87,29.88,2.5,ENE,5.8,-,N/A,,Clear,70,2012-11-02 11:35:00
6:55 AM,30.2,28.4,93,29.87,2.5,ENE,6.9,-,N/A,,Clear,70,2012-11-02 11:55:00
7:15 AM,28.4,26.6,93,29.87,2.5,ENE,4.6,-,N/A,,Clear,60,2012-11-02 12:15:00
7:35 AM,30.2,28.4,93,29.87,1.8,NNE,4.6,-,N/A,,Clear,30,2012-11-02 12:35:00
7:55 AM,33.8,30.2,87,29.88,3.0,North,5.8,-,N/A,,Clear,350,2012-11-02 12:55:00
8:15 AM,32.0,28.4,87,29.89,1.5,North,4.6,-,N/A,,Clear,10,2012-11-02 13:15:00
8:35 AM,33.8,32.0,93,29.90,2.5,NNW,5.8,-,N/A,,Clear,330,2012-11-02 13:35:00
8:55 AM,35.6,32.0,87,29.91,2.5,NNW,4.6,-,N/A,,Clear,340,2012-11-02 13:55:00
9:15 AM,35.6,33.8,93,29.92,3.0,NNW,5.8,-,N/A,,Clear,330,2012-11-02 14:15:00
9:35 AM,37.4,35.6,93,29.92,3.0,North,4.6,-,N/A,,Clear,10,2012-11-02 14:35:00
9:55 AM,37.4,35.6,93,29.93,4.0,NNE,5.8,-,N/A,,Clear,20,2012-11-02 14:55:00
10:15 AM,39.2,35.6,87,29.92,5.0,ENE,5.8,-,N/A,,Clear,60,2012-11-02 15:15:00
10:35 AM,39.2,35.6,87,29.92,5.0,ENE,5.8,-,N/A,,Clear,60,2012-11-02 15:35:00
10:55 AM,41.0,35.6,81,29.93,5.0,NE,5.8,-,N/A,,Clear,50,2012-11-02 15:55:00
11:15 AM,42.8,37.4,81,29.93,7.0,NE,4.6,-,N/A,,Clear,50,2012-11-02 16:15:00
11:35 AM,44.6,37.4,76,29.94,8.0,NE,4.6,-,N/A,,Clear,40,2012-11-02 16:35:00
11:55 AM,46.4,37.4,71,29.93,9.0,NNE,5.8,-,N/A,,Clear,30,2012-11-02 16:55:00
12:15 PM,48.2,37.4,66,29.94,10.0,NNE,9.2,-,N/A,,Clear,20,2012-11-02 17:15:00
12:35 PM,48.2,39.2,71,29.94,10.0,North,10.4,-,N/A,,Clear,350,2012-11-02 17:35:00
12:55 PM,48.2,37.4,66,29.94,10.0,NNW,13.8,-,N/A,,Clear,340,2012-11-02 17:55:00
1:15 PM,46.4,35.6,66,29.95,9.0,NNW,15.0,19.6,N/A,,Clear,340,2012-11-02 18:15:00
1:35 PM,48.2,35.6,62,29.94,9.0,NNW,16.1,-,N/A,,Clear,340,2012-11-02 18:35:00
1:55 PM,48.2,37.4,66,29.94,8.0,NNW,19.6,-,N/A,,Clear,340,2012-11-02 18:55:00
2:15 PM,50.0,37.4,62,29.94,8.0,NNW,19.6,24.2,N/A,,Clear,340,2012-11-02 19:15:00
2:35 PM,51.8,37.4,58,29.94,8.0,North,20.7,27.6,N/A,,Clear,350,2012-11-02 19:35:00
2:55 PM,53.6,37.4,54,29.95,7.0,NNW,21.9,26.5,N/A,,Partly Cloudy,340,2012-11-02 19:55:00
3:15 PM,48.2,37.4,66,29.96,7.0,North,23.0,27.6,N/A,,Mostly Cloudy,360,2012-11-02 20:15:00
3:35 PM,48.2,37.4,66,29.96,10.0,North,19.6,25.3,N/A,,Overcast,350,2012-11-02 20:35:00
3:55 PM,48.2,37.4,66,29.97,10.0,NW,20.7,26.5,N/A,,Overcast,320,2012-11-02 20:55:00
4:15 PM,46.4,37.4,71,29.98,10.0,NNW,18.4,25.3,N/A,,Overcast,340,2012-11-02 21:15:00
4:35 PM,46.4,37.4,71,29.99,10.0,North,20.7,25.3,N/A,,Overcast,360,2012-11-02 21:35:00
4:55 PM,46.4,37.4,71,30.00,9.0,NNW,19.6,23.0,N/A,,Overcast,330,2012-11-02 21:55:00
5:15 PM,46.4,37.4,71,30.00,9.0,North,21.9,-,N/A,,Overcast,360,2012-11-02 22:15:00
5:35 PM,46.4,37.4,71,30.01,10.0,NNW,17.3,-,N/A,,Overcast,340,2012-11-02 22:35:00
5:55 PM,46.4,37.4,71,30.02,10.0,NW,16.1,-,N/A,,Overcast,320,2012-11-02 22:55:00
6:15 PM,44.6,37.4,76,30.03,10.0,North,17.3,-,N/A,,Overcast,360,2012-11-02 23:15:00
6:35 PM,44.6,35.6,71,30.05,9.0,North,17.3,21.9,N/A,,Overcast,350,2012-11-02 23:35:00
6:55 PM,42.8,35.6,76,30.06,10.0,North,20.7,24.2,N/A,,Overcast,10,2012-11-02 23:55:00
7:15 PM,42.8,35.6,76,30.07,10.0,NNE,17.3,-,N/A,,Overcast,20,2012-11-03 00:15:00
7:35 PM,42.8,35.6,76,30.07,10.0,North,11.5,-,N/A,,Overcast,10,2012-11-03 00:35:00
7:55 PM,39.2,33.8,81,30.08,10.0,North,10.4,-,N/A,,Scattered Clouds,10,2012-11-03 00:55:00
8:15 PM,37.4,33.8,87,30.09,10.0,North,9.2,-,N/A,,Clear,10,2012-11-03 01:15:00
8:35 PM,37.4,32.0,81,30.09,10.0,North,8.1,-,N/A,,Clear,360,2012-11-03 01:35:00
8:55 PM,37.4,32.0,81,30.09,10.0,North,9.2,-,N/A,,Clear,350,2012-11-03 01:55:00
9:15 PM,35.6,30.2,81,30.10,10.0,North,8.1,-,N/A,,Clear,360,2012-11-03 02:15:00
9:35 PM,35.6,30.2,81,30.10,10.0,North,10.4,-,N/A,,Clear,10,2012-11-03 02:35:00
9:55 PM,35.6,30.2,81,30.11,10.0,North,9.2,-,N/A,,Clear,350,2012-11-03 02:55:00
10:15 PM,35.6,30.2,81,30.11,10.0,NNW,8.1,-,N/A,,Clear,340,2012-11-03 03:15:00
10:35 PM,33.8,28.4,81,30.12,10.0,North,6.9,-,N/A,,Clear,350,2012-11-03 03:35:00
10:55 PM,33.8,28.4,81,30.12,10.0,NNW,5.8,-,N/A,,Clear,340,2012-11-03 03:55:00
11:15 PM,32.0,28.4,87,30.13,10.0,NNW,4.6,-,N/A,,Clear,330,2012-11-03 04:15:00
11:35 PM,32.0,28.4,87,30.13,10.0,NW,4.6,-,N/A,,Clear,320,2012-11-03 04:35:00
11:55 PM,28.4,24.8,86,30.13,9.0,NW,5.8,-,N/A,,Clear,320,2012-11-03 04:55:00